sensor_id;sensor_type;location;lat;lon;timestamp;P1;durP1;ratioP1;P2;durP2;ratioP2
49946;SDS011;35839;48.662;13.300;2023-05-01T05:05:53;9.33;;;6.17;;
49946;SDS011;35839;48.662;13.300;2023-05-01T05:08:18;10.17;;;5.90;;
49946;SDS011;35839;48.662;13.300;2023-05-01T05:10:43;7.20;;;5.90;;
49946;SDS011;35839;48.662;13.300;2023-05-01T05:13:08;6.80;;;5.33;;
49946;SDS011;35839;48.662;13.300;2023-05-01T05:15:34;6.43;;;5.50;;
49946;SDS011;35839;48.662;13.300;2023-05-01T05:17:59;9.43;;;5.77;;
49946;SDS011;35839;48.662;13.300;2023-05-01T05:20:24;7.33;;;5.57;;
49946;SDS011;35839;48.662;13.300;2023-05-01T05:22:50;9.83;;;5.00;;
49946;SDS011;35839;48.662;13.300;2023-05-01T05:25:16;6.13;;;4.60;;
49946;SDS011;35839;48.662;13.300;2023-05-01T05:27:41;8.53;;;5.30;;
49946;SDS011;35839;48.662;13.300;2023-05-01T05:30:07;7.97;;;5.03;;
49946;SDS011;35839;48.662;13.300;2023-05-01T05:32:33;9.90;;;5.37;;
49946;SDS011;35839;48.662;13.300;2023-05-01T05:34:58;6.20;;;4.47;;
49946;SDS011;35839;48.662;13.300;2023-05-01T05:37:24;9.00;;;5.20;;
49946;SDS011;35839;48.662;13.300;2023-05-01T05:39:50;8.33;;;4.83;;
49946;SDS011;35839;48.662;13.300;2023-05-01T05:42:15;7.43;;;5.97;;
49946;SDS011;35839;48.662;13.300;2023-05-01T05:44:41;7.35;;;4.13;;
49946;SDS011;35839;48.662;13.300;2023-05-01T05:47:06;7.43;;;5.03;;
49946;SDS011;35839;48.662;13.300;2023-05-01T05:49:31;8.27;;;4.43;;
49946;SDS011;35839;48.662;13.300;2023-05-01T05:51:57;8.23;;;4.97;;
49946;SDS011;35839;48.662;13.300;2023-05-01T05:54:22;7.20;;;4.00;;
49946;SDS011;35839;48.662;13.300;2023-05-01T05:56:47;8.77;;;4.43;;
49946;SDS011;35839;48.662;13.300;2023-05-01T05:59:12;4.28;;;3.42;;
49946;SDS011;35839;48.662;13.300;2023-05-01T06:01:38;7.35;;;3.83;;
49946;SDS011;35839;48.662;13.300;2023-05-01T06:04:04;8.98;;;4.40;;
49946;SDS011;35839;48.662;13.300;2023-05-01T06:06:30;6.03;;;3.78;;
49946;SDS011;35839;48.662;13.300;2023-05-01T06:08:56;6.63;;;3.67;;
49946;SDS011;35839;48.662;13.300;2023-05-01T06:11:21;5.05;;;3.08;;
49946;SDS011;35839;48.662;13.300;2023-05-01T06:13:47;8.77;;;3.90;;
49946;SDS011;35839;48.662;13.300;2023-05-01T06:16:12;14.90;;;4.15;;
49946;SDS011;35839;48.662;13.300;2023-05-01T06:18:39;5.07;;;2.72;;
49946;SDS011;35839;48.662;13.300;2023-05-01T06:21:04;6.55;;;3.67;;
49946;SDS011;35839;48.662;13.300;2023-05-01T06:23:29;8.60;;;2.90;;
49946;SDS011;35839;48.662;13.300;2023-05-01T06:25:55;5.75;;;3.10;;
49946;SDS011;35839;48.662;13.300;2023-05-01T06:28:21;7.95;;;3.10;;
49946;SDS011;35839;48.662;13.300;2023-05-01T06:30:46;6.38;;;3.65;;
49946;SDS011;35839;48.662;13.300;2023-05-01T06:33:12;4.88;;;3.47;;
49946;SDS011;35839;48.662;13.300;2023-05-01T06:35:38;4.05;;;3.00;;
49946;SDS011;35839;48.662;13.300;2023-05-01T06:38:03;6.55;;;3.45;;
49946;SDS011;35839;48.662;13.300;2023-05-01T06:40:30;5.85;;;3.85;;
49946;SDS011;35839;48.662;13.300;2023-05-01T06:42:56;4.90;;;3.05;;
49946;SDS011;35839;48.662;13.300;2023-05-01T06:45:25;39.53;;;25.38;;
49946;SDS011;35839;48.662;13.300;2023-05-01T06:47:50;4.93;;;3.17;;
49946;SDS011;35839;48.662;13.300;2023-05-01T06:50:15;8.02;;;3.17;;
49946;SDS011;35839;48.662;13.300;2023-05-01T06:52:41;7.03;;;2.70;;
49946;SDS011;35839;48.662;13.300;2023-05-01T06:55:06;4.35;;;2.85;;
49946;SDS011;35839;48.662;13.300;2023-05-01T06:57:32;4.60;;;3.10;;
49946;SDS011;35839;48.662;13.300;2023-05-01T06:59:57;5.60;;;3.47;;
49946;SDS011;35839;48.662;13.300;2023-05-01T07:02:22;9.10;;;3.47;;
49946;SDS011;35839;48.662;13.300;2023-05-01T07:04:47;4.13;;;2.53;;
49946;SDS011;35839;48.662;13.300;2023-05-01T07:07:13;6.88;;;3.25;;
49946;SDS011;35839;48.662;13.300;2023-05-01T07:09:39;5.22;;;2.83;;
49946;SDS011;35839;48.662;13.300;2023-05-01T07:12:04;7.50;;;3.08;;
49946;SDS011;35839;48.662;13.300;2023-05-01T07:14:30;6.10;;;2.90;;
49946;SDS011;35839;48.662;13.300;2023-05-01T07:16:56;5.70;;;3.15;;
49946;SDS011;35839;48.662;13.300;2023-05-01T07:19:22;5.65;;;3.20;;
49946;SDS011;35839;48.662;13.300;2023-05-01T07:21:47;5.00;;;2.72;;
49946;SDS011;35839;48.662;13.300;2023-05-01T07:24:12;4.25;;;2.55;;
49946;SDS011;35839;48.662;13.300;2023-05-01T07:26:38;4.28;;;2.70;;
49946;SDS011;35839;48.662;13.300;2023-05-01T07:29:03;4.65;;;3.03;;
49946;SDS011;35839;48.662;13.300;2023-05-01T07:31:29;4.85;;;2.60;;
49946;SDS011;35839;48.662;13.300;2023-05-01T07:33:54;5.75;;;2.70;;
49946;SDS011;35839;48.662;13.300;2023-05-01T07:36:20;5.75;;;2.85;;
49946;SDS011;35839;48.662;13.300;2023-05-01T07:38:46;5.40;;;3.10;;
49946;SDS011;35839;48.662;13.300;2023-05-01T07:41:12;4.53;;;2.65;;
49946;SDS011;35839;48.662;13.300;2023-05-01T07:43:37;5.90;;;3.00;;
49946;SDS011;35839;48.662;13.300;2023-05-01T07:46:03;7.40;;;2.90;;
49946;SDS011;35839;48.662;13.300;2023-05-01T07:48:29;5.05;;;3.10;;
49946;SDS011;35839;48.662;13.300;2023-05-01T07:50:55;4.93;;;2.47;;
49946;SDS011;35839;48.662;13.300;2023-05-01T07:53:21;3.33;;;2.40;;
49946;SDS011;35839;48.662;13.300;2023-05-01T07:55:47;7.35;;;2.88;;
49946;SDS011;35839;48.662;13.300;2023-05-01T07:58:12;9.45;;;3.08;;
49946;SDS011;35839;48.662;13.300;2023-05-01T08:00:38;7.07;;;3.17;;
49946;SDS011;35839;48.662;13.300;2023-05-01T08:03:03;6.78;;;3.08;;
49946;SDS011;35839;48.662;13.300;2023-05-01T08:05:28;6.10;;;4.60;;
49946;SDS011;35839;48.662;13.300;2023-05-01T08:07:55;5.10;;;2.70;;
49946;SDS011;35839;48.662;13.300;2023-05-01T08:10:20;3.40;;;2.40;;
49946;SDS011;35839;48.662;13.300;2023-05-01T08:12:46;4.10;;;2.40;;
49946;SDS011;35839;48.662;13.300;2023-05-01T08:15:11;2.15;;;1.95;;
49946;SDS011;35839;48.662;13.300;2023-05-01T08:17:36;4.35;;;2.67;;
49946;SDS011;35839;48.662;13.300;2023-05-01T08:20:02;3.50;;;2.42;;
49946;SDS011;35839;48.662;13.300;2023-05-01T08:22:27;7.18;;;3.08;;
49946;SDS011;35839;48.662;13.300;2023-05-01T08:24:53;3.92;;;2.72;;
49946;SDS011;35839;48.662;13.300;2023-05-01T08:27:18;5.90;;;2.42;;
49946;SDS011;35839;48.662;13.300;2023-05-01T08:29:44;3.33;;;2.28;;
49946;SDS011;35839;48.662;13.300;2023-05-01T08:32:09;6.30;;;2.65;;
49946;SDS011;35839;48.662;13.300;2023-05-01T08:34:34;4.07;;;1.77;;
49946;SDS011;35839;48.662;13.300;2023-05-01T08:37:00;4.25;;;2.58;;
49946;SDS011;35839;48.662;13.300;2023-05-01T08:39:26;2.75;;;2.05;;
49946;SDS011;35839;48.662;13.300;2023-05-01T08:41:51;2.53;;;1.95;;
49946;SDS011;35839;48.662;13.300;2023-05-01T08:44:16;5.15;;;2.30;;
49946;SDS011;35839;48.662;13.300;2023-05-01T08:46:47;4.55;;;2.63;;
49946;SDS011;35839;48.662;13.300;2023-05-01T08:49:17;2.70;;;2.13;;
49946;SDS011;35839;48.662;13.300;2023-05-01T08:51:46;4.03;;;1.83;;
49946;SDS011;35839;48.662;13.300;2023-05-01T08:54:14;4.07;;;2.20;;
49946;SDS011;35839;48.662;13.300;2023-05-01T08:56:42;6.05;;;2.40;;
49946;SDS011;35839;48.662;13.300;2023-05-01T08:59:10;2.63;;;2.17;;
49946;SDS011;35839;48.662;13.300;2023-05-01T09:01:38;3.00;;;2.00;;
49946;SDS011;35839;48.662;13.300;2023-05-01T09:04:05;4.10;;;2.08;;
49946;SDS011;35839;48.662;13.300;2023-05-01T09:06:31;3.42;;;2.22;;
49946;SDS011;35839;48.662;13.300;2023-05-01T09:09:00;3.45;;;2.55;;
49946;SDS011;35839;48.662;13.300;2023-05-01T09:11:25;2.60;;;2.15;;
49946;SDS011;35839;48.662;13.300;2023-05-01T09:13:51;4.28;;;2.65;;
49946;SDS011;35839;48.662;13.300;2023-05-01T09:16:17;2.22;;;1.73;;
49946;SDS011;35839;48.662;13.300;2023-05-01T09:18:43;2.63;;;2.00;;
49946;SDS011;35839;48.662;13.300;2023-05-01T09:21:09;4.10;;;2.15;;
49946;SDS011;35839;48.662;13.300;2023-05-01T09:23:34;2.85;;;2.22;;
49946;SDS011;35839;48.662;13.300;2023-05-01T09:26:04;2.70;;;2.20;;
49946;SDS011;35839;48.662;13.300;2023-05-01T09:31:27;4.57;;;2.15;;
49946;SDS011;35839;48.662;13.300;2023-05-01T09:33:59;6.50;;;2.50;;
49946;SDS011;35839;48.662;13.300;2023-05-01T09:36:27;3.40;;;2.08;;
49946;SDS011;35839;48.662;13.300;2023-05-01T09:38:54;2.42;;;2.17;;
49946;SDS011;35839;48.662;13.300;2023-05-01T09:41:21;3.42;;;1.90;;
49946;SDS011;35839;48.662;13.300;2023-05-01T09:43:50;3.60;;;2.20;;
49946;SDS011;35839;48.662;13.300;2023-05-01T09:46:16;2.72;;;1.92;;
49946;SDS011;35839;48.662;13.300;2023-05-01T09:48:50;2.13;;;1.83;;
49946;SDS011;35839;48.662;13.300;2023-05-01T09:51:23;4.40;;;1.92;;
49946;SDS011;35839;48.662;13.300;2023-05-01T09:53:53;5.50;;;2.80;;
49946;SDS011;35839;48.662;13.300;2023-05-01T09:56:20;2.67;;;2.03;;
49946;SDS011;35839;48.662;13.300;2023-05-01T09:58:46;2.28;;;2.08;;
49946;SDS011;35839;48.662;13.300;2023-05-01T10:01:12;2.55;;;1.90;;
49946;SDS011;35839;48.662;13.300;2023-05-01T10:03:37;2.03;;;1.80;;
49946;SDS011;35839;48.662;13.300;2023-05-01T10:06:03;2.45;;;1.95;;
49946;SDS011;35839;48.662;13.300;2023-05-01T10:08:42;3.90;;;2.00;;
49946;SDS011;35839;48.662;13.300;2023-05-01T10:11:14;5.50;;;2.25;;
49946;SDS011;35839;48.662;13.300;2023-05-01T10:13:40;3.05;;;2.30;;
49946;SDS011;35839;48.662;13.300;2023-05-01T10:16:06;4.03;;;1.98;;
49946;SDS011;35839;48.662;13.300;2023-05-01T10:18:33;7.28;;;2.13;;
49946;SDS011;35839;48.662;13.300;2023-05-01T10:20:59;6.28;;;2.75;;
49946;SDS011;35839;48.662;13.300;2023-05-01T10:23:24;2.78;;;2.17;;
49946;SDS011;35839;48.662;13.300;2023-05-01T10:25:50;6.43;;;2.65;;
49946;SDS011;35839;48.662;13.300;2023-05-01T10:28:17;2.38;;;2.00;;
49946;SDS011;35839;48.662;13.300;2023-05-01T10:30:47;3.30;;;2.10;;
49946;SDS011;35839;48.662;13.300;2023-05-01T10:33:13;2.45;;;2.17;;
49946;SDS011;35839;48.662;13.300;2023-05-01T10:35:39;5.10;;;1.92;;
49946;SDS011;35839;48.662;13.300;2023-05-01T10:38:09;7.55;;;2.75;;
49946;SDS011;35839;48.662;13.300;2023-05-01T10:45:46;3.60;;;2.40;;
49946;SDS011;35839;48.662;13.300;2023-05-01T10:51:16;6.65;;;2.10;;
49946;SDS011;35839;48.662;13.300;2023-05-01T10:53:44;4.05;;;2.22;;
49946;SDS011;35839;48.662;13.300;2023-05-01T11:03:56;3.53;;;2.55;;
49946;SDS011;35839;48.662;13.300;2023-05-01T11:06:23;6.15;;;2.42;;
49946;SDS011;35839;48.662;13.300;2023-05-01T11:08:49;3.03;;;2.25;;
49946;SDS011;35839;48.662;13.300;2023-05-01T11:21:34;3.53;;;1.98;;
49946;SDS011;35839;48.662;13.300;2023-05-01T11:24:01;2.85;;;1.70;;
49946;SDS011;35839;48.662;13.300;2023-05-01T11:26:28;2.47;;;1.90;;
49946;SDS011;35839;48.662;13.300;2023-05-01T11:28:57;3.30;;;2.25;;
49946;SDS011;35839;48.662;13.300;2023-05-01T11:31:24;4.70;;;2.08;;
49946;SDS011;35839;48.662;13.300;2023-05-01T11:33:51;3.35;;;2.38;;
49946;SDS011;35839;48.662;13.300;2023-05-01T11:38:51;5.55;;;2.63;;
49946;SDS011;35839;48.662;13.300;2023-05-01T11:41:21;2.45;;;2.10;;
49946;SDS011;35839;48.662;13.300;2023-05-01T11:43:48;6.03;;;2.17;;
49946;SDS011;35839;48.662;13.300;2023-05-01T11:46:27;2.47;;;1.90;;
49946;SDS011;35839;48.662;13.300;2023-05-01T11:48:55;3.75;;;1.90;;
49946;SDS011;35839;48.662;13.300;2023-05-01T11:51:22;5.65;;;2.53;;
49946;SDS011;35839;48.662;13.300;2023-05-01T11:59:12;2.90;;;1.77;;
49946;SDS011;35839;48.662;13.300;2023-05-01T12:01:41;4.00;;;2.15;;
49946;SDS011;35839;48.662;13.300;2023-05-01T12:04:09;2.20;;;1.98;;
49946;SDS011;35839;48.662;13.300;2023-05-01T12:06:35;2.20;;;1.70;;
49946;SDS011;35839;48.662;13.300;2023-05-01T12:09:08;2.95;;;1.63;;
49946;SDS011;35839;48.662;13.300;2023-05-01T12:11:34;1.90;;;1.70;;
49946;SDS011;35839;48.662;13.300;2023-05-01T12:14:01;3.78;;;1.67;;
49946;SDS011;35839;48.662;13.300;2023-05-01T12:16:26;2.15;;;1.95;;
49946;SDS011;35839;48.662;13.300;2023-05-01T12:18:53;2.75;;;2.05;;
49946;SDS011;35839;48.662;13.300;2023-05-01T12:21:19;2.60;;;2.03;;
49946;SDS011;35839;48.662;13.300;2023-05-01T12:23:45;1.90;;;1.70;;
49946;SDS011;35839;48.662;13.300;2023-05-01T12:26:17;6.18;;;1.70;;
49946;SDS011;35839;48.662;13.300;2023-05-01T12:28:53;3.08;;;2.00;;
49946;SDS011;35839;48.662;13.300;2023-05-01T12:31:22;5.70;;;2.28;;
49946;SDS011;35839;48.662;13.300;2023-05-01T12:33:56;2.00;;;1.77;;
49946;SDS011;35839;48.662;13.300;2023-05-01T12:36:26;3.28;;;2.20;;
49946;SDS011;35839;48.662;13.300;2023-05-01T12:38:54;4.13;;;2.15;;
49946;SDS011;35839;48.662;13.300;2023-05-01T12:41:20;4.28;;;2.00;;
49946;SDS011;35839;48.662;13.300;2023-05-01T12:43:45;5.00;;;2.47;;
49946;SDS011;35839;48.662;13.300;2023-05-01T12:46:12;3.95;;;2.25;;
49946;SDS011;35839;48.662;13.300;2023-05-01T12:48:38;4.97;;;2.50;;
49946;SDS011;35839;48.662;13.300;2023-05-01T12:51:04;4.07;;;2.22;;
49946;SDS011;35839;48.662;13.300;2023-05-01T12:53:30;2.65;;;1.80;;
49946;SDS011;35839;48.662;13.300;2023-05-01T12:55:56;4.13;;;2.17;;
49946;SDS011;35839;48.662;13.300;2023-05-01T12:58:22;4.07;;;2.72;;
49946;SDS011;35839;48.662;13.300;2023-05-01T13:00:52;4.40;;;2.75;;
49946;SDS011;35839;48.662;13.300;2023-05-01T13:03:25;2.78;;;2.17;;
49946;SDS011;35839;48.662;13.300;2023-05-01T13:05:56;4.35;;;2.75;;
49946;SDS011;35839;48.662;13.300;2023-05-01T13:08:24;4.95;;;2.65;;
49946;SDS011;35839;48.662;13.300;2023-05-01T13:11:08;5.65;;;2.53;;
49946;SDS011;35839;48.662;13.300;2023-05-01T13:13:36;3.97;;;2.40;;
49946;SDS011;35839;48.662;13.300;2023-05-01T13:16:06;4.80;;;2.72;;
49946;SDS011;35839;48.662;13.300;2023-05-01T13:21:09;2.90;;;2.63;;
49946;SDS011;35839;48.662;13.300;2023-05-01T13:23:38;7.28;;;2.60;;
49946;SDS011;35839;48.662;13.300;2023-05-01T13:26:04;3.05;;;2.17;;
49946;SDS011;35839;48.662;13.300;2023-05-01T13:28:32;3.20;;;2.17;;
49946;SDS011;35839;48.662;13.300;2023-05-01T13:30:58;3.25;;;2.40;;
49946;SDS011;35839;48.662;13.300;2023-05-01T13:33:23;6.18;;;2.33;;
49946;SDS011;35839;48.662;13.300;2023-05-01T13:35:48;2.88;;;2.42;;
49946;SDS011;35839;48.662;13.300;2023-05-01T13:38:14;4.78;;;2.90;;
49946;SDS011;35839;48.662;13.300;2023-05-01T13:40:40;4.15;;;2.70;;
49946;SDS011;35839;48.662;13.300;2023-05-01T13:43:07;3.47;;;2.92;;
49946;SDS011;35839;48.662;13.300;2023-05-01T13:45:41;3.47;;;2.70;;
49946;SDS011;35839;48.662;13.300;2023-05-01T13:48:07;3.58;;;2.70;;
49946;SDS011;35839;48.662;13.300;2023-05-01T13:50:33;4.50;;;2.63;;
49946;SDS011;35839;48.662;13.300;2023-05-01T13:52:58;3.42;;;2.33;;
49946;SDS011;35839;48.662;13.300;2023-05-01T13:55:23;3.88;;;2.97;;
49946;SDS011;35839;48.662;13.300;2023-05-01T13:57:49;2.95;;;2.38;;
49946;SDS011;35839;48.662;13.300;2023-05-01T14:00:15;3.75;;;2.35;;
49946;SDS011;35839;48.662;13.300;2023-05-01T14:02:42;4.57;;;2.78;;
49946;SDS011;35839;48.662;13.300;2023-05-01T14:05:09;4.05;;;2.78;;
49946;SDS011;35839;48.662;13.300;2023-05-01T14:07:38;2.95;;;2.45;;
49946;SDS011;35839;48.662;13.300;2023-05-01T14:10:25;3.72;;;2.25;;
49946;SDS011;35839;48.662;13.300;2023-05-01T14:12:56;2.60;;;2.40;;
49946;SDS011;35839;48.662;13.300;2023-05-01T14:15:22;2.95;;;2.60;;
49946;SDS011;35839;48.662;13.300;2023-05-01T14:17:50;3.40;;;2.53;;
49946;SDS011;35839;48.662;13.300;2023-05-01T14:20:16;6.05;;;3.47;;
49946;SDS011;35839;48.662;13.300;2023-05-01T14:22:43;8.65;;;2.97;;
49946;SDS011;35839;48.662;13.300;2023-05-01T14:25:23;3.08;;;2.20;;
49946;SDS011;35839;48.662;13.300;2023-05-01T14:27:53;4.88;;;2.33;;
49946;SDS011;35839;48.662;13.300;2023-05-01T14:32:57;5.18;;;2.83;;
49946;SDS011;35839;48.662;13.300;2023-05-01T14:35:23;3.53;;;2.72;;
49946;SDS011;35839;48.662;13.300;2023-05-01T14:37:49;2.95;;;2.33;;
49946;SDS011;35839;48.662;13.300;2023-05-01T14:40:16;6.40;;;3.28;;
49946;SDS011;35839;48.662;13.300;2023-05-01T14:42:42;5.65;;;3.03;;
49946;SDS011;35839;48.662;13.300;2023-05-01T14:45:09;4.88;;;2.72;;
49946;SDS011;35839;48.662;13.300;2023-05-01T14:47:39;6.55;;;2.78;;
49946;SDS011;35839;48.662;13.300;2023-05-01T14:50:07;6.75;;;3.00;;
49946;SDS011;35839;48.662;13.300;2023-05-01T14:52:36;3.33;;;2.72;;
49946;SDS011;35839;48.662;13.300;2023-05-01T14:55:03;4.88;;;3.05;;
49946;SDS011;35839;48.662;13.300;2023-05-01T14:57:28;3.47;;;2.45;;
49946;SDS011;35839;48.662;13.300;2023-05-01T14:59:54;3.80;;;2.55;;
49946;SDS011;35839;48.662;13.300;2023-05-01T15:02:19;4.03;;;3.15;;
49946;SDS011;35839;48.662;13.300;2023-05-01T15:04:44;3.65;;;2.95;;
49946;SDS011;35839;48.662;13.300;2023-05-01T15:07:10;5.20;;;3.28;;
49946;SDS011;35839;48.662;13.300;2023-05-01T15:09:35;3.90;;;2.85;;
49946;SDS011;35839;48.662;13.300;2023-05-01T15:12:01;4.18;;;2.97;;
49946;SDS011;35839;48.662;13.300;2023-05-01T15:14:27;9.07;;;3.55;;
49946;SDS011;35839;48.662;13.300;2023-05-01T15:16:52;4.97;;;2.78;;
49946;SDS011;35839;48.662;13.300;2023-05-01T15:19:17;5.60;;;3.13;;
49946;SDS011;35839;48.662;13.300;2023-05-01T15:21:43;4.40;;;3.40;;
49946;SDS011;35839;48.662;13.300;2023-05-01T15:24:08;5.45;;;3.90;;
49946;SDS011;35839;48.662;13.300;2023-05-01T15:26:34;4.07;;;3.17;;
49946;SDS011;35839;48.662;13.300;2023-05-01T15:28:59;6.30;;;3.67;;
49946;SDS011;35839;48.662;13.300;2023-05-01T15:31:25;5.25;;;3.55;;
49946;SDS011;35839;48.662;13.300;2023-05-01T15:33:50;6.15;;;3.70;;
49946;SDS011;35839;48.662;13.300;2023-05-01T15:36:15;4.45;;;3.60;;
49946;SDS011;35839;48.662;13.300;2023-05-01T15:38:41;10.88;;;7.70;;
49946;SDS011;35839;48.662;13.300;2023-05-01T15:41:06;5.85;;;4.25;;
49946;SDS011;35839;48.662;13.300;2023-05-01T15:43:32;3.75;;;3.35;;
49946;SDS011;35839;48.662;13.300;2023-05-01T15:45:57;4.13;;;2.97;;
49946;SDS011;35839;48.662;13.300;2023-05-01T15:48:23;3.33;;;2.88;;
49946;SDS011;35839;48.662;13.300;2023-05-01T15:50:49;5.30;;;3.45;;
49946;SDS011;35839;48.662;13.300;2023-05-01T15:53:15;7.57;;;3.92;;
49946;SDS011;35839;48.662;13.300;2023-05-01T15:55:40;6.03;;;4.15;;
49946;SDS011;35839;48.662;13.300;2023-05-01T15:58:06;5.57;;;4.03;;
49946;SDS011;35839;48.662;13.300;2023-05-01T16:00:31;5.93;;;3.97;;
49946;SDS011;35839;48.662;13.300;2023-05-01T16:02:59;6.25;;;4.20;;
49946;SDS011;35839;48.662;13.300;2023-05-01T16:05:26;6.13;;;4.25;;
49946;SDS011;35839;48.662;13.300;2023-05-01T16:07:53;7.15;;;4.32;;
49946;SDS011;35839;48.662;13.300;2023-05-01T16:10:19;6.30;;;4.55;;
49946;SDS011;35839;48.662;13.300;2023-05-01T16:12:45;5.28;;;4.40;;
49946;SDS011;35839;48.662;13.300;2023-05-01T16:15:11;8.60;;;6.65;;
49946;SDS011;35839;48.662;13.300;2023-05-01T16:17:41;8.00;;;5.03;;
49946;SDS011;35839;48.662;13.300;2023-05-01T16:22:37;7.55;;;4.63;;
49946;SDS011;35839;48.662;13.300;2023-05-01T16:25:04;5.95;;;4.85;;
49946;SDS011;35839;48.662;13.300;2023-05-01T16:27:29;6.15;;;4.63;;
49946;SDS011;35839;48.662;13.300;2023-05-01T16:29:55;5.50;;;4.57;;
49946;SDS011;35839;48.662;13.300;2023-05-01T16:32:20;7.85;;;4.53;;
49946;SDS011;35839;48.662;13.300;2023-05-01T16:34:47;8.60;;;4.50;;
49946;SDS011;35839;48.662;13.300;2023-05-01T16:37:13;6.65;;;4.18;;
49946;SDS011;35839;48.662;13.300;2023-05-01T16:39:40;7.20;;;5.22;;
49946;SDS011;35839;48.662;13.300;2023-05-01T16:42:05;8.20;;;5.07;;
49946;SDS011;35839;48.662;13.300;2023-05-01T16:44:33;6.25;;;4.90;;
49946;SDS011;35839;48.662;13.300;2023-05-01T16:46:59;5.95;;;5.20;;
49946;SDS011;35839;48.662;13.300;2023-05-01T16:49:25;5.55;;;4.78;;
49946;SDS011;35839;48.662;13.300;2023-05-01T16:51:51;6.88;;;5.40;;
49946;SDS011;35839;48.662;13.300;2023-05-01T16:54:20;6.07;;;4.97;;
49946;SDS011;35839;48.662;13.300;2023-05-01T16:56:47;7.57;;;5.20;;
49946;SDS011;35839;48.662;13.300;2023-05-01T16:59:13;6.35;;;5.15;;
49946;SDS011;35839;48.662;13.300;2023-05-01T17:01:38;77.93;;;42.63;;
49946;SDS011;35839;48.662;13.300;2023-05-01T17:04:04;18.90;;;16.92;;
49946;SDS011;35839;48.662;13.300;2023-05-01T17:06:29;13.43;;;7.53;;
49946;SDS011;35839;48.662;13.300;2023-05-01T17:08:55;12.07;;;6.90;;
49946;SDS011;35839;48.662;13.300;2023-05-01T17:11:20;8.25;;;5.93;;
49946;SDS011;35839;48.662;13.300;2023-05-01T17:13:48;11.48;;;6.55;;
49946;SDS011;35839;48.662;13.300;2023-05-01T17:16:13;7.80;;;5.97;;
49946;SDS011;35839;48.662;13.300;2023-05-01T17:18:39;15.25;;;6.47;;
49946;SDS011;35839;48.662;13.300;2023-05-01T17:21:04;9.30;;;5.68;;
49946;SDS011;35839;48.662;13.300;2023-05-01T17:23:30;7.25;;;6.32;;
49946;SDS011;35839;48.662;13.300;2023-05-01T17:25:55;7.75;;;5.85;;
49946;SDS011;35839;48.662;13.300;2023-05-01T17:28:21;8.30;;;5.97;;
49946;SDS011;35839;48.662;13.300;2023-05-01T17:30:47;7.38;;;6.00;;
49946;SDS011;35839;48.662;13.300;2023-05-01T17:33:13;12.05;;;6.93;;
49946;SDS011;35839;48.662;13.300;2023-05-01T17:35:39;20.35;;;7.47;;
49946;SDS011;35839;48.662;13.300;2023-05-01T17:38:04;11.95;;;8.15;;
49946;SDS011;35839;48.662;13.300;2023-05-01T17:40:29;9.43;;;7.32;;
49946;SDS011;35839;48.662;13.300;2023-05-01T17:42:56;10.02;;;7.32;;
49946;SDS011;35839;48.662;13.300;2023-05-01T17:45:21;8.90;;;7.35;;
49946;SDS011;35839;48.662;13.300;2023-05-01T17:47:47;9.98;;;7.85;;
49946;SDS011;35839;48.662;13.300;2023-05-01T17:50:12;14.90;;;8.90;;
49946;SDS011;35839;48.662;13.300;2023-05-01T17:52:39;10.38;;;8.57;;
49946;SDS011;35839;48.662;13.300;2023-05-01T17:55:05;16.77;;;8.32;;
49946;SDS011;35839;48.662;13.300;2023-05-01T17:57:31;13.90;;;8.45;;
49946;SDS011;35839;48.662;13.300;2023-05-01T17:59:57;11.43;;;8.27;;
49946;SDS011;35839;48.662;13.300;2023-05-01T18:02:23;12.73;;;8.50;;
49946;SDS011;35839;48.662;13.300;2023-05-01T18:04:49;10.98;;;8.40;;
49946;SDS011;35839;48.662;13.300;2023-05-01T18:07:15;12.32;;;8.38;;
49946;SDS011;35839;48.662;13.300;2023-05-01T18:09:40;10.68;;;9.00;;
49946;SDS011;35839;48.662;13.300;2023-05-01T18:12:05;9.20;;;7.90;;
49946;SDS011;35839;48.662;13.300;2023-05-01T18:14:31;17.50;;;8.70;;
49946;SDS011;35839;48.662;13.300;2023-05-01T18:16:56;11.80;;;8.93;;
49946;SDS011;35839;48.662;13.300;2023-05-01T18:19:22;9.90;;;8.00;;
49946;SDS011;35839;48.662;13.300;2023-05-01T18:21:47;11.65;;;8.13;;
49946;SDS011;35839;48.662;13.300;2023-05-01T18:24:12;8.80;;;7.85;;
49946;SDS011;35839;48.662;13.300;2023-05-01T18:26:37;10.43;;;8.15;;
49946;SDS011;35839;48.662;13.300;2023-05-01T18:29:03;11.50;;;7.72;;
49946;SDS011;35839;48.662;13.300;2023-05-01T18:31:28;9.60;;;7.53;;
49946;SDS011;35839;48.662;13.300;2023-05-01T18:33:53;9.63;;;7.95;;
49946;SDS011;35839;48.662;13.300;2023-05-01T18:36:19;11.70;;;8.40;;
49946;SDS011;35839;48.662;13.300;2023-05-01T18:38:44;12.15;;;7.82;;
49946;SDS011;35839;48.662;13.300;2023-05-01T18:41:10;9.32;;;7.03;;
49946;SDS011;35839;48.662;13.300;2023-05-01T18:43:35;7.45;;;6.57;;
49946;SDS011;35839;48.662;13.300;2023-05-01T18:46:00;10.25;;;7.13;;
49946;SDS011;35839;48.662;13.300;2023-05-01T18:48:26;9.48;;;7.20;;
49946;SDS011;35839;48.662;13.300;2023-05-01T18:50:51;8.73;;;7.68;;
49946;SDS011;35839;48.662;13.300;2023-05-01T18:53:16;8.88;;;7.60;;
49946;SDS011;35839;48.662;13.300;2023-05-01T18:55:41;8.88;;;7.38;;
49946;SDS011;35839;48.662;13.300;2023-05-01T18:58:07;9.85;;;7.82;;
49946;SDS011;35839;48.662;13.300;2023-05-01T19:00:32;11.25;;;8.43;;
49946;SDS011;35839;48.662;13.300;2023-05-01T19:02:57;11.80;;;8.63;;
49946;SDS011;35839;48.662;13.300;2023-05-01T19:05:23;13.35;;;8.57;;
49946;SDS011;35839;48.662;13.300;2023-05-01T19:07:49;10.68;;;8.85;;
49946;SDS011;35839;48.662;13.300;2023-05-01T19:10:14;14.07;;;9.27;;
49946;SDS011;35839;48.662;13.300;2023-05-01T19:12:40;11.73;;;8.77;;
49946;SDS011;35839;48.662;13.300;2023-05-01T19:15:06;10.85;;;9.38;;
49946;SDS011;35839;48.662;13.300;2023-05-01T19:17:32;13.10;;;11.32;;
49946;SDS011;35839;48.662;13.300;2023-05-01T19:19:57;12.30;;;9.80;;
49946;SDS011;35839;48.662;13.300;2023-05-01T19:22:23;12.50;;;9.25;;
49946;SDS011;35839;48.662;13.300;2023-05-01T19:24:49;10.82;;;9.73;;
49946;SDS011;35839;48.662;13.300;2023-05-01T19:27:15;13.02;;;10.38;;
49946;SDS011;35839;48.662;13.300;2023-05-01T19:29:41;11.75;;;10.40;;
49946;SDS011;35839;48.662;13.300;2023-05-01T19:32:07;11.77;;;10.52;;
49946;SDS011;35839;48.662;13.300;2023-05-01T19:34:32;13.88;;;10.82;;
49946;SDS011;35839;48.662;13.300;2023-05-01T19:36:57;13.80;;;11.32;;
49946;SDS011;35839;48.662;13.300;2023-05-01T19:39:24;16.92;;;12.50;;
49946;SDS011;35839;48.662;13.300;2023-05-01T19:41:50;12.65;;;11.35;;
49946;SDS011;35839;48.662;13.300;2023-05-01T19:44:16;14.70;;;11.60;;
49946;SDS011;35839;48.662;13.300;2023-05-01T19:46:41;12.60;;;10.40;;
49946;SDS011;35839;48.662;13.300;2023-05-01T19:49:06;18.85;;;13.30;;
49946;SDS011;35839;48.662;13.300;2023-05-01T19:51:32;14.88;;;11.55;;
49946;SDS011;35839;48.662;13.300;2023-05-01T19:53:57;14.45;;;12.80;;
49946;SDS011;35839;48.662;13.300;2023-05-01T19:56:23;16.90;;;12.10;;
49946;SDS011;35839;48.662;13.300;2023-05-01T19:58:49;19.02;;;13.32;;
49946;SDS011;35839;48.662;13.300;2023-05-01T20:01:15;15.05;;;12.63;;
49946;SDS011;35839;48.662;13.300;2023-05-01T20:03:40;14.90;;;13.13;;
49946;SDS011;35839;48.662;13.300;2023-05-01T20:06:05;15.02;;;12.88;;
49946;SDS011;35839;48.662;13.300;2023-05-01T20:08:31;14.85;;;12.55;;
49946;SDS011;35839;48.662;13.300;2023-05-01T20:10:56;16.15;;;13.55;;
49946;SDS011;35839;48.662;13.300;2023-05-01T20:13:22;17.05;;;13.40;;
49946;SDS011;35839;48.662;13.300;2023-05-01T20:15:47;13.93;;;12.27;;